createdAt,value
2017-09-06T00:00:33.966Z,85.90
2017-09-06T00:03:02.459Z,85.90
2017-09-06T00:05:30.956Z,85.80
2017-09-06T00:07:59.420Z,86.10
2017-09-06T00:10:27.878Z,85.70
2017-09-06T00:12:56.338Z,85.90
2017-09-06T00:15:24.771Z,85.90
2017-09-06T00:17:53.201Z,86.00
2017-09-06T00:20:21.664Z,86.10
2017-09-06T00:22:50.083Z,86.20
2017-09-06T00:25:18.527Z,86.80
2017-09-06T00:27:47.241Z,86.50
2017-09-06T00:30:15.650Z,86.20
2017-09-06T00:32:44.174Z,86.20
2017-09-06T00:35:12.878Z,86.40
2017-09-06T00:37:41.337Z,86.90
2017-09-06T00:40:09.760Z,86.60
2017-09-06T00:42:38.474Z,86.50
2017-09-06T00:45:07.662Z,86.80
2017-09-06T00:47:35.724Z,86.80
2017-09-06T00:50:04.200Z,86.60
2017-09-06T00:52:32.254Z,86.80
2017-09-06T00:55:00.685Z,86.60
2017-09-06T00:57:28.461Z,86.90
2017-09-06T00:59:56.887Z,87.00
2017-09-06T01:02:25.301Z,87.20
2017-09-06T01:04:53.779Z,87.40
2017-09-06T01:07:22.190Z,87.50
2017-09-06T01:09:50.253Z,87.70
2017-09-06T01:12:18.582Z,87.50
2017-09-06T01:14:47.021Z,87.50
2017-09-06T01:17:15.461Z,87.70
2017-09-06T01:19:43.192Z,87.60
2017-09-06T01:22:11.606Z,87.80
2017-09-06T01:24:40.042Z,88.30
2017-09-06T01:27:08.469Z,88.10
2017-09-06T01:29:36.880Z,88.30
2017-09-06T01:32:04.965Z,88.20
2017-09-06T01:34:33.596Z,88.10
2017-09-06T01:37:01.997Z,88.30
2017-09-06T01:39:30.416Z,88.60
2017-09-06T01:41:58.882Z,88.60
2017-09-06T01:44:26.949Z,88.70
2017-09-06T01:46:55.012Z,88.80
2017-09-06T01:49:23.468Z,89.20
2017-09-06T01:51:51.549Z,89.20
2017-09-06T01:54:19.955Z,89.40
2017-09-06T01:56:48.429Z,89.30
2017-09-06T01:59:16.858Z,89.40
2017-09-06T02:01:44.917Z,89.90
2017-09-06T02:04:14.017Z,89.70
2017-09-06T02:06:42.096Z,89.70
2017-09-06T02:09:10.337Z,89.40
2017-09-06T02:11:38.765Z,89.30
2017-09-06T02:14:07.190Z,89.60
2017-09-06T02:16:35.620Z,89.60
2017-09-06T02:19:04.082Z,89.80
2017-09-06T02:21:32.497Z,89.90
2017-09-06T02:24:00.918Z,89.90
2017-09-06T02:26:29.372Z,90.20
2017-09-06T02:28:57.866Z,90.30
2017-09-06T02:31:26.286Z,90.30
2017-09-06T02:33:54.780Z,90.30
2017-09-06T02:36:23.205Z,90.40
2017-09-06T02:38:51.630Z,90.30
2017-09-06T02:41:20.079Z,90.20
2017-09-06T02:43:48.408Z,90.30
2017-09-06T02:46:16.836Z,90.40
2017-09-06T02:48:45.286Z,90.50
2017-09-06T02:51:13.261Z,90.60
2017-09-06T02:53:41.683Z,90.80
2017-09-06T02:56:09.779Z,90.80
2017-09-06T02:58:38.207Z,90.50
2017-09-06T03:01:06.642Z,90.50
2017-09-06T03:03:35.085Z,90.60
2017-09-06T03:06:03.484Z,90.70
2017-09-06T03:08:31.913Z,90.80
2017-09-06T03:11:00.339Z,90.80
2017-09-06T03:13:28.556Z,90.90
2017-09-06T03:15:56.977Z,91.00
2017-09-06T03:18:25.662Z,91.00
2017-09-06T03:20:54.060Z,90.90
2017-09-06T03:23:22.489Z,90.90
2017-09-06T03:25:50.931Z,90.80
2017-09-06T03:28:19.364Z,90.80
2017-09-06T03:30:47.778Z,90.90
2017-09-06T03:33:16.893Z,90.90
2017-09-06T03:35:45.302Z,90.90
2017-09-06T03:38:13.726Z,90.90
2017-09-06T03:40:42.154Z,90.90
2017-09-06T03:43:10.577Z,90.90
2017-09-06T03:45:38.981Z,91.00
2017-09-06T03:48:07.420Z,90.90
2017-09-06T03:50:35.837Z,90.90
2017-09-06T03:53:04.272Z,91.00
2017-09-06T03:55:32.757Z,91.10
2017-09-06T03:58:01.174Z,91.20
2017-09-06T04:00:29.568Z,91.60
2017-09-06T04:02:58.010Z,92.50
2017-09-06T04:05:26.676Z,92.90
2017-09-06T04:07:55.093Z,93.20
2017-09-06T04:10:23.533Z,93.90
2017-09-06T04:12:51.968Z,94.80
2017-09-06T04:15:20.649Z,95.30
2017-09-06T04:17:49.089Z,95.50
2017-09-06T04:20:17.514Z,95.60
2017-09-06T04:22:45.952Z,95.70
2017-09-06T04:25:14.052Z,95.80
2017-09-06T04:27:42.466Z,95.80
2017-09-06T04:30:10.876Z,95.60
2017-09-06T04:32:39.338Z,95.70
2017-09-06T04:35:07.749Z,95.20
2017-09-06T04:37:36.169Z,95.50
2017-09-06T04:40:04.605Z,95.50
2017-09-06T04:42:33.019Z,95.50
2017-09-06T04:45:01.463Z,95.70
2017-09-06T04:47:29.933Z,95.60
2017-09-06T04:49:58.610Z,96.00
2017-09-06T04:52:27.188Z,96.00
2017-09-06T04:54:55.617Z,96.00
2017-09-06T04:57:24.080Z,96.00
2017-09-06T04:59:52.528Z,96.50
2017-09-06T05:02:20.783Z,96.20
2017-09-06T05:04:49.200Z,96.00
2017-09-06T05:07:17.614Z,95.80
2017-09-06T05:09:46.297Z,95.90
2017-09-06T05:12:14.732Z,95.70
2017-09-06T05:14:43.401Z,95.50
2017-09-06T05:17:11.858Z,95.60
2017-09-06T05:19:40.265Z,95.50
2017-09-06T05:22:08.676Z,95.40
2017-09-06T05:24:37.144Z,95.10
2017-09-06T05:27:05.725Z,95.20
2017-09-06T05:29:34.145Z,95.20
2017-09-06T05:32:02.585Z,95.00
2017-09-06T05:34:31.025Z,94.90
2017-09-06T05:37:00.222Z,95.00
2017-09-06T05:39:28.849Z,95.10
2017-09-06T05:41:57.249Z,94.80
2017-09-06T05:44:25.658Z,94.70
2017-09-06T05:46:54.121Z,94.60
2017-09-06T05:49:22.551Z,94.80
2017-09-06T05:51:50.988Z,94.80
2017-09-06T05:54:19.454Z,94.70
2017-09-06T05:56:47.864Z,95.20
2017-09-06T05:59:16.286Z,95.40
2017-09-06T06:01:44.705Z,95.40
2017-09-06T06:04:13.121Z,95.60
2017-09-06T06:06:41.551Z,95.60
2017-09-06T06:09:09.990Z,95.50
2017-09-06T06:11:38.414Z,95.80
2017-09-06T06:14:06.824Z,95.90
2017-09-06T06:16:35.537Z,96.00
2017-09-06T06:19:03.948Z,96.10
2017-09-06T06:21:32.399Z,96.00
2017-09-06T06:24:00.899Z,96.00
2017-09-06T06:26:29.304Z,96.00
2017-09-06T06:28:57.728Z,95.90
2017-09-06T06:31:26.150Z,95.80
2017-09-06T06:33:54.562Z,95.90
2017-09-06T06:36:22.992Z,95.90
2017-09-06T06:38:51.416Z,95.70
2017-09-06T06:41:19.640Z,95.50
2017-09-06T06:43:48.061Z,95.80
2017-09-06T06:46:16.492Z,96.10
2017-09-06T06:48:44.920Z,96.70
2017-09-06T06:51:13.343Z,96.50
2017-09-06T06:53:41.798Z,96.90
2017-09-06T06:56:10.227Z,97.00
2017-09-06T06:58:38.652Z,97.10
2017-09-06T07:01:07.113Z,97.10
2017-09-06T07:03:35.539Z,97.10
2017-09-06T07:06:03.958Z,96.80
2017-09-06T07:08:32.672Z,96.70
2017-09-06T07:11:01.089Z,96.30
2017-09-06T07:13:29.509Z,96.70
2017-09-06T07:15:57.980Z,96.70
2017-09-06T07:18:27.268Z,96.90
2017-09-06T07:20:55.688Z,96.30
2017-09-06T07:23:24.124Z,96.10
2017-09-06T07:25:52.548Z,96.10
2017-09-06T07:28:21.661Z,95.30
2017-09-06T07:30:50.105Z,94.60
2017-09-06T07:33:18.520Z,94.30
2017-09-06T07:35:46.937Z,94.70
2017-09-06T07:38:16.144Z,93.90
2017-09-06T07:40:44.570Z,93.90
2017-09-06T07:43:13.236Z,93.50
2017-09-06T07:45:41.446Z,93.70
2017-09-06T07:48:09.863Z,93.80
2017-09-06T07:50:38.277Z,94.40
2017-09-06T07:53:06.717Z,94.30
2017-09-06T07:55:35.388Z,94.00
2017-09-06T07:58:03.824Z,93.80
2017-09-06T08:00:32.265Z,93.60
2017-09-06T08:03:00.509Z,92.60
2017-09-06T08:05:28.941Z,92.20
2017-09-06T08:08:02.832Z,92.60
2017-09-06T08:10:32.027Z,92.40
2017-09-06T08:13:00.431Z,91.50
2017-09-06T08:15:28.865Z,90.80
2017-09-06T08:17:57.280Z,90.70
2017-09-06T08:20:25.684Z,90.70
2017-09-06T08:22:54.120Z,89.80
2017-09-06T08:25:22.544Z,90.00
2017-09-06T08:27:50.997Z,89.60
2017-09-06T08:30:19.419Z,90.10
2017-09-06T08:32:47.837Z,88.60
2017-09-06T08:35:16.280Z,84.50
2017-09-06T08:37:45.920Z,82.80
2017-09-06T08:40:14.145Z,82.80
2017-09-06T08:42:43.358Z,82.80
2017-09-06T08:45:11.797Z,82.70
2017-09-06T08:47:40.205Z,81.70
2017-09-06T08:50:08.631Z,82.20
2017-09-06T08:52:37.100Z,83.70
2017-09-06T08:55:05.556Z,82.80
2017-09-06T08:57:34.002Z,82.90
2017-09-06T09:00:02.448Z,84.40
2017-09-06T09:02:30.861Z,83.80
2017-09-06T09:04:59.274Z,82.40
2017-09-06T09:07:27.717Z,81.70
2017-09-06T09:09:56.132Z,82.90
2017-09-06T09:12:24.560Z,82.30
2017-09-06T09:14:53.022Z,81.60
2017-09-06T09:17:21.438Z,80.90
2017-09-06T09:19:49.837Z,80.70
2017-09-06T09:22:18.273Z,80.40
2017-09-06T09:24:46.689Z,79.70
2017-09-06T09:27:15.898Z,80.20
2017-09-06T09:29:44.384Z,80.20
2017-09-06T09:32:12.788Z,81.00
2017-09-06T09:34:42.047Z,80.40
2017-09-06T09:37:10.497Z,79.70
2017-09-06T09:39:38.953Z,78.50
2017-09-06T09:42:07.389Z,78.40
2017-09-06T09:44:35.821Z,79.50
2017-09-06T09:47:05.131Z,78.30
2017-09-06T09:49:33.697Z,78.20
2017-09-06T09:52:02.132Z,79.00
2017-09-06T09:54:30.561Z,80.10
2017-09-06T09:56:58.984Z,78.10
2017-09-06T09:59:27.489Z,77.10
2017-09-06T10:01:55.900Z,76.90
2017-09-06T10:04:25.424Z,76.10
2017-09-06T10:06:54.098Z,74.30
2017-09-06T10:09:22.525Z,74.70
2017-09-06T10:11:50.944Z,74.50
2017-09-06T10:14:19.396Z,75.40
2017-09-06T10:16:47.524Z,75.50
2017-09-06T10:19:15.934Z,73.30
2017-09-06T10:21:44.018Z,74.00
2017-09-06T10:24:12.451Z,72.90
2017-09-06T10:26:40.865Z,73.90
2017-09-06T10:29:09.902Z,73.70
2017-09-06T10:31:38.317Z,72.70
2017-09-06T10:34:06.817Z,73.20
2017-09-06T10:36:35.397Z,73.10
2017-09-06T10:39:03.490Z,71.40
2017-09-06T10:41:31.905Z,70.40
2017-09-06T10:44:00.586Z,71.80
2017-09-06T10:46:29.041Z,70.10
2017-09-06T10:48:57.465Z,69.60
2017-09-06T10:51:26.117Z,69.00
2017-09-06T10:53:54.549Z,69.10
2017-09-06T10:56:22.992Z,65.80
2017-09-06T10:58:51.661Z,64.20
2017-09-06T11:01:20.084Z,65.00
2017-09-06T11:03:48.514Z,63.80
2017-09-06T11:06:16.980Z,63.20
2017-09-06T11:08:45.385Z,65.00
2017-09-06T11:11:13.801Z,65.00
2017-09-06T11:13:42.455Z,64.60
2017-09-06T11:16:10.868Z,65.50
2017-09-06T11:18:39.291Z,65.70
2017-09-06T11:21:07.993Z,65.50
2017-09-06T11:23:36.410Z,66.10
2017-09-06T11:26:04.831Z,64.60
2017-09-06T11:28:34.237Z,64.30
2017-09-06T11:31:02.753Z,64.30
2017-09-06T11:33:31.605Z,63.80
2017-09-06T11:36:00.065Z,63.60
2017-09-06T11:38:28.600Z,63.50
2017-09-06T11:40:57.021Z,62.80
2017-09-06T11:43:25.451Z,63.10
2017-09-06T11:45:53.889Z,60.80
2017-09-06T11:48:22.325Z,60.10
2017-09-06T11:50:50.602Z,60.70
2017-09-06T11:53:19.023Z,60.50
2017-09-06T11:55:47.452Z,63.50
2017-09-06T11:58:15.903Z,63.50
2017-09-06T12:00:44.386Z,61.40
2017-09-06T12:03:12.809Z,60.70
2017-09-06T12:05:41.249Z,61.60
2017-09-06T12:08:09.697Z,62.40
2017-09-06T12:10:37.933Z,64.00
2017-09-06T12:13:06.609Z,62.10
2017-09-06T12:15:35.030Z,60.40
2017-09-06T12:18:03.485Z,58.40
2017-09-06T12:20:32.349Z,58.70
2017-09-06T12:23:00.794Z,58.10
2017-09-06T12:25:29.467Z,58.50
2017-09-06T12:27:57.919Z,58.50
2017-09-06T12:30:26.348Z,59.00
2017-09-06T12:32:54.771Z,60.60
2017-09-06T12:35:23.424Z,57.80
2017-09-06T12:37:51.897Z,56.90
2017-09-06T12:40:20.715Z,58.80
2017-09-06T12:42:49.170Z,59.70
2017-09-06T12:45:17.785Z,59.80
2017-09-06T12:47:46.414Z,58.80
2017-09-06T12:50:15.010Z,58.70
2017-09-06T12:52:43.644Z,58.10
2017-09-06T12:55:12.150Z,58.70
2017-09-06T12:57:40.745Z,58.00
2017-09-06T13:00:09.369Z,56.50
2017-09-06T13:02:38.056Z,55.10
2017-09-06T13:05:06.978Z,56.50
2017-09-06T13:07:35.478Z,57.40
2017-09-06T13:10:03.552Z,58.30
2017-09-06T13:12:33.596Z,56.20
2017-09-06T13:15:02.922Z,56.10
2017-09-06T13:17:31.389Z,54.80
2017-09-06T13:20:00.043Z,54.80
2017-09-06T13:22:28.494Z,53.90
2017-09-06T13:24:56.888Z,52.80
2017-09-06T13:27:25.482Z,53.10
2017-09-06T13:29:53.898Z,55.10
2017-09-06T13:32:22.328Z,54.20
2017-09-06T13:34:50.793Z,54.10
2017-09-06T13:37:19.198Z,53.90
2017-09-06T13:39:48.727Z,55.40
2017-09-06T13:42:17.164Z,55.50
2017-09-06T13:44:45.602Z,54.40
2017-09-06T13:47:14.258Z,54.30
2017-09-06T13:49:42.937Z,54.70
2017-09-06T13:52:11.445Z,53.10
2017-09-06T13:54:39.907Z,52.90
2017-09-06T13:57:08.373Z,53.40
2017-09-06T13:59:37.617Z,53.50
2017-09-06T14:02:06.031Z,53.50
2017-09-06T14:04:34.824Z,53.50
2017-09-06T14:07:03.339Z,55.40
2017-09-06T14:09:32.010Z,55.00
2017-09-06T14:12:00.481Z,55.00
2017-09-06T14:14:28.909Z,56.20
2017-09-06T14:16:57.342Z,55.80
2017-09-06T14:19:25.848Z,56.70
2017-09-06T14:21:54.318Z,56.90
2017-09-06T14:24:22.810Z,56.90
2017-09-06T14:26:51.242Z,56.20
2017-09-06T14:29:19.687Z,55.70
2017-09-06T14:31:48.150Z,55.30
2017-09-06T14:34:16.685Z,55.10
2017-09-06T14:36:45.244Z,55.80
2017-09-06T14:39:13.668Z,55.80
2017-09-06T14:41:42.113Z,55.80
2017-09-06T14:44:10.531Z,56.90
2017-09-06T14:46:39.001Z,56.90
2017-09-06T14:49:07.449Z,57.70
2017-09-06T14:51:35.857Z,57.10
2017-09-06T14:54:04.291Z,57.60
2017-09-06T14:56:32.740Z,58.10
2017-09-06T14:59:01.170Z,58.60
2017-09-06T15:01:29.401Z,58.60
2017-09-06T15:03:57.863Z,58.50
2017-09-06T15:06:26.293Z,58.80
2017-09-06T15:08:54.736Z,58.90
2017-09-06T15:11:23.188Z,57.80
2017-09-06T15:13:51.618Z,57.90
2017-09-06T15:16:20.992Z,58.60
2017-09-06T15:18:49.497Z,58.80
2017-09-06T15:21:17.911Z,58.70
2017-09-06T15:23:46.329Z,58.20
2017-09-06T15:26:14.781Z,59.50
2017-09-06T15:28:43.233Z,59.80
2017-09-06T15:31:11.660Z,60.20
2017-09-06T15:33:40.170Z,59.40
2017-09-06T15:36:08.586Z,60.00
2017-09-06T15:38:37.005Z,59.10
2017-09-06T15:41:05.461Z,58.20
2017-09-06T15:43:34.004Z,58.10
2017-09-06T15:46:03.635Z,57.70
2017-09-06T15:48:32.089Z,58.10
2017-09-06T15:51:00.564Z,58.00
2017-09-06T15:53:29.089Z,57.80
2017-09-06T15:55:57.533Z,56.80
2017-09-06T15:58:25.972Z,57.60
2017-09-06T16:00:54.388Z,57.50
2017-09-06T16:03:22.844Z,57.50
2017-09-06T16:05:51.266Z,57.20
2017-09-06T16:08:20.448Z,57.00
2017-09-06T16:10:48.909Z,57.00
2017-09-06T16:13:17.317Z,57.80
2017-09-06T16:15:45.847Z,57.10
2017-09-06T16:18:14.297Z,58.00
2017-09-06T16:20:43.513Z,57.90
2017-09-06T16:23:11.576Z,57.90
2017-09-06T16:25:40.018Z,57.40
2017-09-06T16:28:08.290Z,57.70
2017-09-06T16:30:36.826Z,58.00
2017-09-06T16:33:05.277Z,57.70
2017-09-06T16:35:33.705Z,57.60
2017-09-06T16:38:02.139Z,57.50
2017-09-06T16:40:30.604Z,57.70
2017-09-06T16:42:59.030Z,57.40
2017-09-06T16:45:27.442Z,57.80
2017-09-06T16:47:55.909Z,57.50
2017-09-06T16:50:24.571Z,57.80
2017-09-06T16:52:52.976Z,58.10
2017-09-06T16:55:21.429Z,57.60
2017-09-06T16:57:49.842Z,57.70
2017-09-06T17:00:18.270Z,58.10
2017-09-06T17:02:46.724Z,58.00
2017-09-06T17:05:15.210Z,57.80
2017-09-06T17:07:43.609Z,58.20
2017-09-06T17:10:12.063Z,58.50
2017-09-06T17:12:41.234Z,59.50
2017-09-06T17:15:09.637Z,59.50
2017-09-06T17:17:38.100Z,60.00
2017-09-06T17:20:06.516Z,60.30
2017-09-06T17:22:34.934Z,60.60
2017-09-06T17:25:05.038Z,61.00
2017-09-06T17:27:33.479Z,61.20
2017-09-06T17:30:02.065Z,61.90
2017-09-06T17:32:30.576Z,61.90
2017-09-06T17:34:59.044Z,62.20
2017-09-06T17:37:27.498Z,62.90
2017-09-06T17:39:55.949Z,63.70
2017-09-06T17:42:24.374Z,64.30
2017-09-06T17:44:53.146Z,64.60
2017-09-06T17:47:21.581Z,64.70
2017-09-06T17:49:49.992Z,64.80
2017-09-06T17:52:18.423Z,64.80
2017-09-06T17:54:46.868Z,65.00
2017-09-06T17:57:16.060Z,64.60
2017-09-06T17:59:45.291Z,64.70
2017-09-06T18:02:13.737Z,64.70
2017-09-06T18:04:42.142Z,64.20
2017-09-06T18:07:10.577Z,63.90
2017-09-06T18:09:39.033Z,64.10
2017-09-06T18:12:07.732Z,64.50
2017-09-06T18:14:36.163Z,64.20
2017-09-06T18:17:04.617Z,64.20
2017-09-06T18:19:33.034Z,63.80
2017-09-06T18:22:01.722Z,64.00
2017-09-06T18:24:30.173Z,62.90
2017-09-06T18:26:58.605Z,63.00
2017-09-06T18:29:27.044Z,62.60
2017-09-06T18:31:55.510Z,62.30
2017-09-06T18:34:23.936Z,62.20
2017-09-06T18:36:52.361Z,62.00
2017-09-06T18:39:20.806Z,61.70
2017-09-06T18:41:49.245Z,61.00
2017-09-06T18:44:17.683Z,60.60
2017-09-06T18:46:46.172Z,60.60
2017-09-06T18:49:14.613Z,60.20
2017-09-06T18:51:43.080Z,60.10
2017-09-06T18:54:12.318Z,60.20
2017-09-06T18:56:41.010Z,60.10
2017-09-06T18:59:09.445Z,59.40
2017-09-06T19:01:37.893Z,59.50
2017-09-06T19:04:06.331Z,59.30
2017-09-06T19:06:34.962Z,59.30
2017-09-06T19:09:03.138Z,59.20
2017-09-06T19:11:32.218Z,58.90
2017-09-06T19:14:00.641Z,59.10
2017-09-06T19:16:29.877Z,58.60
2017-09-06T19:18:58.305Z,58.70
2017-09-06T19:21:26.732Z,58.90
2017-09-06T19:23:55.974Z,58.70
2017-09-06T19:26:24.429Z,58.70
2017-09-06T19:28:52.862Z,58.20
2017-09-06T19:31:21.201Z,58.40
2017-09-06T19:33:49.636Z,58.20
2017-09-06T19:36:18.069Z,58.60
2017-09-06T19:38:46.542Z,59.40
2017-09-06T19:41:14.976Z,58.80
2017-09-06T19:43:44.161Z,59.00
2017-09-06T19:46:12.624Z,59.00
2017-09-06T19:48:41.820Z,58.80
2017-09-06T19:51:10.321Z,58.80
2017-09-06T19:53:39.002Z,58.80
2017-09-06T19:56:07.439Z,58.70
2017-09-06T19:58:37.313Z,58.80
2017-09-06T20:01:05.906Z,58.70
2017-09-06T20:03:34.331Z,59.10
2017-09-06T20:06:02.760Z,58.90
2017-09-06T20:08:31.229Z,58.80
2017-09-06T20:10:59.654Z,58.80
2017-09-06T20:13:28.129Z,59.00
2017-09-06T20:15:56.579Z,59.00
2017-09-06T20:18:25.257Z,59.10
2017-09-06T20:20:53.678Z,59.30
2017-09-06T20:23:22.176Z,59.40
2017-09-06T20:25:50.596Z,59.60
2017-09-06T20:28:19.790Z,59.60
2017-09-06T20:30:48.209Z,59.60
2017-09-06T20:33:16.645Z,59.40
2017-09-06T20:35:45.293Z,59.60
2017-09-06T20:38:13.984Z,59.80
2017-09-06T20:40:42.396Z,59.80
2017-09-06T20:43:10.831Z,59.70
2017-09-06T20:45:39.286Z,59.90
2017-09-06T20:48:07.733Z,60.20
2017-09-06T20:50:36.148Z,60.20
2017-09-06T20:53:04.636Z,60.20
2017-09-06T20:55:33.049Z,60.40
2017-09-06T20:58:01.487Z,60.60
2017-09-06T21:00:29.942Z,61.00
2017-09-06T21:02:58.366Z,60.90
2017-09-06T21:05:26.786Z,61.10
2017-09-06T21:07:55.231Z,61.30
2017-09-06T21:10:23.665Z,62.40
2017-09-06T21:12:52.349Z,61.70
2017-09-06T21:15:20.792Z,61.70
2017-09-06T21:17:49.202Z,61.90
2017-09-06T21:20:17.636Z,62.00
2017-09-06T21:22:46.079Z,62.10
2017-09-06T21:25:14.500Z,62.50
2017-09-06T21:27:43.204Z,62.40
2017-09-06T21:30:11.656Z,62.60
2017-09-06T21:32:40.112Z,62.80
2017-09-06T21:35:08.548Z,63.30
2017-09-06T21:37:36.993Z,64.30
2017-09-06T21:40:05.445Z,64.50
2017-09-06T21:42:33.897Z,63.90
2017-09-06T21:45:02.349Z,63.90
2017-09-06T21:47:30.825Z,64.00
2017-09-06T21:49:59.271Z,64.30
2017-09-06T21:52:27.843Z,64.50
2017-09-06T21:54:56.257Z,64.80
2017-09-06T21:57:24.678Z,64.70
2017-09-06T21:59:53.132Z,64.90
2017-09-06T22:02:22.365Z,64.80
2017-09-06T22:04:50.784Z,65.30
2017-09-06T22:07:19.225Z,65.40
2017-09-06T22:09:47.652Z,65.70
2017-09-06T22:12:16.084Z,65.50
2017-09-06T22:14:44.549Z,65.70
2017-09-06T22:17:12.980Z,65.70
2017-09-06T22:19:41.422Z,66.20
2017-09-06T22:22:09.854Z,66.40
2017-09-06T22:24:38.272Z,66.30
2017-09-06T22:27:06.543Z,66.70
2017-09-06T22:29:35.002Z,67.00
2017-09-06T22:32:03.427Z,67.00
2017-09-06T22:34:31.852Z,67.80
2017-09-06T22:37:00.316Z,68.10
2017-09-06T22:39:28.744Z,68.40
2017-09-06T22:41:57.169Z,68.50
2017-09-06T22:44:25.616Z,68.90
2017-09-06T22:46:54.029Z,69.50
2017-09-06T22:49:22.437Z,69.40
2017-09-06T22:51:50.885Z,69.90
2017-09-06T22:54:19.116Z,70.00
2017-09-06T22:56:47.544Z,69.90
2017-09-06T22:59:15.986Z,69.90
2017-09-06T23:01:44.401Z,70.10
2017-09-06T23:04:12.817Z,70.20
2017-09-06T23:06:41.249Z,70.30
2017-09-06T23:09:09.664Z,70.50
2017-09-06T23:11:38.067Z,71.00
2017-09-06T23:14:06.520Z,70.80
2017-09-06T23:16:34.940Z,71.00
2017-09-06T23:19:03.349Z,71.10
2017-09-06T23:21:31.790Z,70.70
2017-09-06T23:24:00.213Z,71.10
2017-09-06T23:26:28.629Z,71.60
2017-09-06T23:28:57.072Z,71.70
2017-09-06T23:31:25.492Z,71.50
2017-09-06T23:33:53.722Z,71.70
2017-09-06T23:36:22.165Z,71.20
2017-09-06T23:38:50.576Z,71.20
2017-09-06T23:41:18.997Z,71.50
2017-09-06T23:43:47.452Z,71.50
2017-09-06T23:46:15.955Z,71.70
2017-09-06T23:48:44.384Z,72.00
2017-09-06T23:51:12.818Z,72.20
2017-09-06T23:53:41.253Z,72.20
2017-09-06T23:56:09.681Z,72.40
2017-09-06T23:58:38.127Z,72.50
